Lewis, Wisconsin
Current Conditions -  °F | °C
As of 2:35 PM on Friday 21 Nov 2014 (Local Time) from KRZN Reporting Station
Clear Clear  
Wind Chill: 18°   Ceiling: Unl
Heat Index: 28°   Visibility: 10mi
Dew Point: 16°   Wind: 10mph
Humidity: 61%   Direction: 190°S
Pressure: 30"   Gusts: 17mph
Location:  45.71°N, 92.4°W
Report Text: KRZN 212035Z AUTO 19009G15KT 10SM CLR M02/M09 A3000 RMK AO2 T10251091
Loading
Personal Weather Stations






























Interactive Weather Map New forecast layout! Learn more

10-Day Weather Forecast

Advertisements
Track Severe Weather on mobile